createdAt,value
2019-03-28T00:03:53.447Z,72.97
2019-03-28T00:09:00.915Z,70.12
2019-03-28T00:14:09.597Z,73.02
2019-03-28T00:19:16.695Z,69.62
2019-03-28T00:24:25.525Z,62.60
2019-03-28T00:29:32.862Z,62.80
2019-03-28T00:34:40.231Z,63.20
2019-03-28T00:39:47.388Z,87.65
2019-03-28T00:44:54.427Z,52.85
2019-03-28T00:50:01.705Z,46.85
2019-03-28T00:55:09.358Z,48.75
2019-03-28T01:00:16.801Z,44.35
2019-03-28T01:05:24.191Z,46.08
2019-03-28T01:10:32.679Z,47.48
2019-03-28T01:15:57.662Z,44.90
2019-03-28T01:21:06.554Z,41.18
2019-03-28T01:26:15.823Z,40.38
2019-03-28T01:31:25.483Z,38.67
2019-03-28T01:36:53.674Z,37.50
2019-03-28T01:42:02.275Z,33.88
2019-03-28T01:47:10.970Z,34.15
2019-03-28T01:52:18.992Z,37.20
2019-03-28T01:57:26.586Z,32.73
2019-03-28T02:02:34.332Z,36.30
2019-03-28T02:07:42.188Z,33.53
2019-03-28T02:12:50.106Z,33.90
2019-03-28T02:17:58.115Z,42.35
2019-03-28T02:23:07.220Z,28.52
2019-03-28T02:28:17.283Z,26.67
2019-03-28T02:33:29.227Z,28.42
2019-03-28T02:38:37.385Z,30.23
2019-03-28T02:44:05.195Z,27.90
2019-03-28T02:49:14.222Z,38.35
2019-03-28T02:54:22.378Z,36.10
2019-03-28T02:59:31.463Z,28.12
2019-03-28T03:04:42.166Z,29.23
2019-03-28T03:09:51.791Z,33.10
2019-03-28T03:15:00.623Z,26.87
2019-03-28T03:20:10.162Z,28.70
2019-03-28T03:25:18.148Z,27.82
2019-03-28T03:30:25.821Z,30.40
2019-03-28T03:35:34.727Z,28.73
2019-03-28T03:40:42.645Z,24.00
2019-03-28T03:45:50.459Z,26.17
2019-03-28T03:50:58.252Z,25.70
2019-03-28T03:56:06.349Z,30.27
2019-03-28T04:01:14.388Z,33.08
2019-03-28T04:06:22.910Z,28.23
2019-03-28T04:11:33.890Z,26.80
2019-03-28T04:16:41.935Z,29.95
2019-03-28T04:21:49.849Z,35.13
2019-03-28T04:26:57.564Z,33.70
2019-03-28T04:32:05.069Z,31.07
2019-03-28T04:37:13.445Z,33.35
2019-03-28T04:42:21.332Z,30.35
2019-03-28T04:47:29.141Z,30.50
2019-03-28T04:52:39.333Z,29.87
2019-03-28T04:57:47.346Z,31.00
2019-03-28T05:02:55.473Z,28.87
2019-03-28T05:08:03.155Z,30.05
2019-03-28T05:13:10.764Z,31.85
2019-03-28T05:18:19.584Z,29.25
2019-03-28T05:23:27.388Z,29.98
2019-03-28T05:28:35.235Z,30.55
2019-03-28T05:33:42.889Z,29.77
2019-03-28T05:38:52.252Z,27.90
2019-03-28T05:44:00.104Z,27.30
2019-03-28T05:49:08.362Z,26.85
2019-03-28T05:54:16.992Z,29.82
2019-03-28T05:59:26.005Z,26.25
2019-03-28T06:04:34.348Z,28.30
2019-03-28T06:09:42.725Z,27.42
2019-03-28T06:14:50.405Z,29.60
2019-03-28T06:19:58.579Z,25.08
2019-03-28T06:25:08.104Z,26.25
2019-03-28T06:30:16.532Z,27.70
2019-03-28T06:35:24.355Z,25.55
2019-03-28T06:40:32.443Z,23.47
2019-03-28T06:45:41.295Z,28.52
2019-03-28T06:50:49.988Z,28.20
2019-03-28T06:55:58.409Z,26.82
2019-03-28T07:01:06.360Z,30.80
2019-03-28T07:06:14.633Z,26.65
2019-03-28T07:11:23.460Z,27.40
2019-03-28T07:16:31.178Z,26.90
2019-03-28T07:21:40.254Z,28.83
2019-03-28T07:26:48.199Z,29.50
2019-03-28T07:31:56.204Z,26.77
2019-03-28T07:37:03.746Z,25.12
2019-03-28T07:42:12.900Z,25.15
2019-03-28T07:47:21.989Z,28.83
2019-03-28T07:52:31.046Z,52.10
2019-03-28T07:58:16.928Z,75.40
2019-03-28T08:03:25.782Z,50.65
2019-03-28T08:08:38.965Z,31.87
2019-03-28T08:13:44.246Z,30.20
2019-03-28T08:18:52.459Z,33.67
2019-03-28T08:24:00.593Z,35.98
2019-03-28T08:29:09.003Z,40.63
2019-03-28T08:34:18.597Z,36.38
2019-03-28T08:39:27.239Z,51.63
2019-03-28T08:44:36.265Z,49.83
2019-03-28T08:49:44.571Z,39.00
2019-03-28T08:54:52.279Z,32.50
2019-03-28T09:00:01.675Z,31.52
2019-03-28T09:05:11.229Z,27.73
2019-03-28T09:10:21.300Z,16.40
2019-03-28T09:15:43.174Z,12.73
2019-03-28T09:20:40.330Z,16.30
2019-03-28T09:25:47.951Z,26.55
2019-03-28T09:30:56.394Z,28.75
2019-03-28T09:36:04.255Z,28.65
2019-03-28T09:41:16.515Z,20.00
2019-03-28T09:46:26.787Z,16.50
2019-03-28T09:51:35.308Z,21.40
2019-03-28T09:56:44.632Z,25.17
2019-03-28T10:02:13.740Z,21.33
2019-03-28T10:07:22.864Z,16.03
2019-03-28T10:12:30.536Z,16.30
2019-03-28T10:17:42.287Z,19.77
2019-03-28T10:22:48.518Z,22.58
2019-03-28T10:27:57.099Z,19.52
2019-03-28T10:33:06.352Z,19.52
2019-03-28T10:38:15.601Z,21.25
2019-03-28T10:43:24.612Z,21.35
2019-03-28T10:48:32.486Z,25.30
2019-03-28T10:53:40.373Z,35.80
2019-03-28T10:58:48.528Z,39.83
2019-03-28T11:03:58.058Z,28.15
2019-03-28T11:09:06.808Z,33.53
2019-03-28T11:14:14.893Z,31.40
2019-03-28T11:19:22.554Z,28.23
2019-03-28T11:24:30.340Z,29.25
2019-03-28T11:29:40.696Z,23.10
2019-03-28T11:34:48.719Z,29.93
2019-03-28T11:40:25.927Z,27.52
2019-03-28T11:45:33.493Z,21.37
2019-03-28T11:50:41.320Z,23.87
2019-03-28T11:55:50.350Z,24.07
2019-03-28T12:00:59.189Z,33.08
2019-03-28T12:06:07.721Z,28.55
2019-03-28T12:11:15.384Z,29.75
2019-03-28T12:16:23.011Z,24.50
2019-03-28T12:21:30.657Z,19.82
2019-03-28T12:26:39.445Z,16.45
2019-03-28T12:31:46.891Z,17.80
2019-03-28T12:36:55.453Z,16.87
2019-03-28T12:42:03.496Z,18.77
2019-03-28T12:47:13.301Z,16.60
2019-03-28T12:52:20.794Z,17.12
2019-03-28T12:57:30.585Z,17.85
2019-03-28T13:02:38.419Z,18.98
2019-03-28T13:07:48.892Z,22.00
2019-03-28T13:12:56.955Z,18.80
2019-03-28T13:18:04.565Z,22.32
2019-03-28T13:23:12.323Z,23.73
2019-03-28T13:28:21.230Z,17.48
2019-03-28T13:33:30.217Z,20.08
2019-03-28T13:38:38.590Z,26.75
2019-03-28T13:43:46.194Z,24.18
2019-03-28T13:48:54.780Z,20.23
2019-03-28T13:54:03.490Z,21.62
2019-03-28T13:59:11.194Z,18.67
2019-03-28T14:04:19.360Z,19.90
2019-03-28T14:09:27.238Z,19.45
2019-03-28T14:14:35.084Z,20.40
2019-03-28T14:19:43.388Z,23.38
2019-03-28T14:24:52.582Z,24.02
2019-03-28T14:30:20.559Z,22.55
2019-03-28T14:35:29.145Z,25.75
2019-03-28T14:40:37.018Z,26.27
2019-03-28T14:45:44.754Z,32.03
2019-03-28T14:50:59.016Z,31.77
2019-03-28T14:56:06.592Z,33.08
2019-03-28T15:01:15.454Z,31.57
2019-03-28T15:06:24.712Z,30.02
2019-03-28T15:11:34.450Z,31.68
2019-03-28T15:16:42.222Z,38.70
2019-03-28T15:21:50.750Z,32.08
2019-03-28T15:26:58.890Z,37.38
2019-03-28T15:32:07.031Z,39.92
2019-03-28T15:37:14.814Z,35.05
2019-03-28T15:42:23.171Z,41.95
2019-03-28T15:47:31.874Z,42.15
2019-03-28T15:52:40.425Z,40.65
2019-03-28T15:57:49.069Z,41.20
2019-03-28T16:02:57.962Z,39.63
2019-03-28T16:08:05.963Z,39.38
2019-03-28T16:13:17.322Z,44.58
2019-03-28T16:18:25.278Z,41.42
2019-03-28T16:23:33.028Z,46.02
2019-03-28T16:28:41.486Z,41.83
2019-03-28T16:33:49.699Z,43.90
2019-03-28T16:38:59.416Z,48.33
2019-03-28T16:44:07.657Z,46.23
2019-03-28T16:49:16.725Z,42.15
2019-03-28T16:54:24.776Z,50.78
2019-03-28T16:59:32.348Z,51.90
2019-03-28T17:04:41.437Z,46.40
2019-03-28T17:09:49.440Z,63.13
2019-03-28T17:14:57.152Z,61.48
2019-03-28T17:20:05.605Z,71.42
2019-03-28T17:25:13.293Z,53.00
2019-03-28T17:30:21.099Z,56.77
2019-03-28T17:35:29.819Z,53.65
2019-03-28T17:40:38.735Z,63.92
2019-03-28T17:45:47.179Z,66.30
2019-03-28T17:50:55.755Z,62.17
2019-03-28T17:56:03.835Z,57.33
2019-03-28T18:01:12.082Z,57.17
2019-03-28T18:06:20.081Z,61.02
2019-03-28T18:11:28.039Z,50.67
2019-03-28T18:16:37.282Z,58.20
2019-03-28T18:21:45.920Z,61.40
2019-03-28T18:26:54.170Z,66.92
2019-03-28T18:32:02.316Z,58.30
2019-03-28T18:37:10.222Z,55.20
2019-03-28T18:42:17.955Z,54.05
2019-03-28T18:47:25.640Z,51.83
2019-03-28T18:52:33.766Z,47.20
2019-03-28T18:57:42.183Z,41.35
2019-03-28T19:02:50.923Z,37.35
2019-03-28T19:07:58.873Z,39.13
2019-03-28T19:13:07.224Z,44.03
2019-03-28T19:18:15.526Z,39.85
2019-03-28T19:23:24.833Z,40.85
2019-03-28T19:28:33.833Z,39.73
2019-03-28T19:33:41.967Z,37.73
2019-03-28T19:38:49.812Z,37.30
2019-03-28T19:43:57.596Z,34.95
2019-03-28T19:49:05.238Z,41.13
2019-03-28T19:54:12.627Z,37.85
2019-03-28T19:59:20.572Z,40.63
2019-03-28T20:04:28.877Z,42.67
2019-03-28T20:09:36.919Z,37.90
2019-03-28T20:14:45.108Z,37.90
2019-03-28T20:19:53.194Z,39.88
2019-03-28T20:25:01.378Z,36.15
2019-03-28T20:30:10.439Z,38.83
2019-03-28T20:35:18.514Z,42.50
2019-03-28T20:40:26.847Z,37.30
2019-03-28T20:45:35.070Z,38.02
2019-03-28T20:50:42.477Z,39.98
2019-03-28T20:55:53.773Z,36.63
2019-03-28T21:01:02.480Z,41.08
2019-03-28T21:06:15.478Z,39.30
2019-03-28T21:11:20.140Z,36.80
2019-03-28T21:16:28.067Z,41.23
2019-03-28T21:21:36.841Z,39.05
2019-03-28T21:26:45.303Z,41.15
2019-03-28T21:31:53.573Z,41.28
2019-03-28T21:37:01.702Z,40.85
2019-03-28T21:42:09.729Z,46.02
2019-03-28T21:47:17.382Z,42.98
2019-03-28T21:52:26.390Z,44.10
2019-03-28T21:57:35.015Z,46.13
2019-03-28T22:02:43.432Z,47.03
2019-03-28T22:07:52.068Z,52.30
2019-03-28T22:13:01.015Z,49.38
2019-03-28T22:18:11.135Z,54.75
2019-03-28T22:23:19.269Z,49.48
2019-03-28T22:28:27.461Z,48.48
2019-03-28T22:33:36.394Z,54.27
2019-03-28T22:38:45.312Z,54.55
2019-03-28T22:43:53.390Z,56.55
2019-03-28T22:49:30.409Z,60.50
2019-03-28T22:54:39.298Z,52.80
2019-03-28T22:59:47.419Z,61.73
2019-03-28T23:04:55.784Z,64.42
2019-03-28T23:10:03.696Z,63.90
2019-03-28T23:15:12.999Z,64.97
2019-03-28T23:20:23.809Z,60.80
2019-03-28T23:25:32.087Z,60.17
2019-03-28T23:30:40.034Z,58.63
2019-03-28T23:35:48.475Z,50.17
2019-03-28T23:40:57.253Z,49.95
2019-03-28T23:46:04.877Z,54.93
2019-03-28T23:51:14.716Z,49.95
2019-03-28T23:56:23.246Z,52.08
